sensor_id;sensor_type;location;lat;lon;timestamp;P1;durP1;ratioP1;P2;durP2;ratioP2
29382;SDS011;16365;51.598;7.668;2022-08-19T00:01:57;9.73;;;6.60;;
29382;SDS011;16365;51.598;7.668;2022-08-19T00:04:27;9.77;;;6.57;;
29382;SDS011;16365;51.598;7.668;2022-08-19T00:06:56;9.38;;;6.45;;
29382;SDS011;16365;51.598;7.668;2022-08-19T00:09:23;8.23;;;6.32;;
29382;SDS011;16365;51.598;7.668;2022-08-19T00:11:50;8.00;;;6.25;;
29382;SDS011;16365;51.598;7.668;2022-08-19T00:14:18;9.75;;;6.60;;
29382;SDS011;16365;51.598;7.668;2022-08-19T00:16:47;7.32;;;6.10;;
29382;SDS011;16365;51.598;7.668;2022-08-19T00:19:15;9.50;;;6.07;;
29382;SDS011;16365;51.598;7.668;2022-08-19T00:21:42;8.82;;;5.80;;
29382;SDS011;16365;51.598;7.668;2022-08-19T00:24:10;8.23;;;6.50;;
29382;SDS011;16365;51.598;7.668;2022-08-19T00:26:39;8.85;;;7.00;;
29382;SDS011;16365;51.598;7.668;2022-08-19T00:29:07;10.50;;;7.60;;
29382;SDS011;16365;51.598;7.668;2022-08-19T00:31:35;10.10;;;7.28;;
29382;SDS011;16365;51.598;7.668;2022-08-19T00:34:02;9.82;;;7.00;;
29382;SDS011;16365;51.598;7.668;2022-08-19T00:36:30;10.17;;;6.80;;
29382;SDS011;16365;51.598;7.668;2022-08-19T00:38:59;8.60;;;6.72;;
29382;SDS011;16365;51.598;7.668;2022-08-19T00:41:26;12.18;;;7.03;;
29382;SDS011;16365;51.598;7.668;2022-08-19T00:46:54;10.75;;;7.68;;
29382;SDS011;16365;51.598;7.668;2022-08-19T00:49:45;10.45;;;7.85;;
29382;SDS011;16365;51.598;7.668;2022-08-19T00:52:27;12.65;;;9.00;;
29382;SDS011;16365;51.598;7.668;2022-08-19T00:54:58;11.13;;;8.77;;
29382;SDS011;16365;51.598;7.668;2022-08-19T00:57:27;11.00;;;8.88;;
29382;SDS011;16365;51.598;7.668;2022-08-19T00:59:59;9.93;;;8.40;;
29382;SDS011;16365;51.598;7.668;2022-08-19T01:02:29;12.30;;;8.25;;
29382;SDS011;16365;51.598;7.668;2022-08-19T01:04:59;13.73;;;8.98;;
29382;SDS011;16365;51.598;7.668;2022-08-19T01:07:28;16.10;;;8.95;;
29382;SDS011;16365;51.598;7.668;2022-08-19T01:10:03;17.30;;;8.57;;
29382;SDS011;16365;51.598;7.668;2022-08-19T01:12:32;11.73;;;9.70;;
29382;SDS011;16365;51.598;7.668;2022-08-19T01:14:59;14.07;;;10.45;;
29382;SDS011;16365;51.598;7.668;2022-08-19T01:17:26;14.75;;;11.73;;
29382;SDS011;16365;51.598;7.668;2022-08-19T01:19:54;14.35;;;11.02;;
29382;SDS011;16365;51.598;7.668;2022-08-19T01:24:58;14.43;;;9.63;;
29382;SDS011;16365;51.598;7.668;2022-08-19T01:27:25;15.05;;;10.82;;
29382;SDS011;16365;51.598;7.668;2022-08-19T01:29:55;18.40;;;11.27;;
29382;SDS011;16365;51.598;7.668;2022-08-19T01:32:22;15.40;;;10.90;;
29382;SDS011;16365;51.598;7.668;2022-08-19T01:34:59;16.42;;;11.77;;
29382;SDS011;16365;51.598;7.668;2022-08-19T01:37:28;13.80;;;11.02;;
29382;SDS011;16365;51.598;7.668;2022-08-19T01:39:56;16.33;;;11.40;;
29382;SDS011;16365;51.598;7.668;2022-08-19T01:42:23;14.93;;;10.57;;
29382;SDS011;16365;51.598;7.668;2022-08-19T01:44:55;19.17;;;12.20;;
29382;SDS011;16365;51.598;7.668;2022-08-19T01:47:22;15.63;;;12.63;;
29382;SDS011;16365;51.598;7.668;2022-08-19T01:49:49;19.00;;;12.93;;
29382;SDS011;16365;51.598;7.668;2022-08-19T01:52:16;17.00;;;12.23;;
29382;SDS011;16365;51.598;7.668;2022-08-19T01:54:42;16.85;;;12.80;;
29382;SDS011;16365;51.598;7.668;2022-08-19T01:57:10;17.73;;;11.80;;
29382;SDS011;16365;51.598;7.668;2022-08-19T01:59:41;17.13;;;13.02;;
29382;SDS011;16365;51.598;7.668;2022-08-19T02:02:10;20.35;;;14.07;;
29382;SDS011;16365;51.598;7.668;2022-08-19T02:04:36;17.40;;;12.70;;
29382;SDS011;16365;51.598;7.668;2022-08-19T02:07:04;18.05;;;12.73;;
29382;SDS011;16365;51.598;7.668;2022-08-19T02:09:31;20.02;;;13.52;;
29382;SDS011;16365;51.598;7.668;2022-08-19T02:11:58;17.70;;;13.05;;
29382;SDS011;16365;51.598;7.668;2022-08-19T02:14:25;19.63;;;14.10;;
29382;SDS011;16365;51.598;7.668;2022-08-19T02:16:51;17.70;;;13.82;;
29382;SDS011;16365;51.598;7.668;2022-08-19T02:19:18;17.60;;;13.48;;
29382;SDS011;16365;51.598;7.668;2022-08-19T02:21:44;19.63;;;13.65;;
29382;SDS011;16365;51.598;7.668;2022-08-19T02:24:11;17.02;;;12.35;;
29382;SDS011;16365;51.598;7.668;2022-08-19T02:26:38;19.25;;;13.20;;
29382;SDS011;16365;51.598;7.668;2022-08-19T02:29:05;18.05;;;12.73;;
29382;SDS011;16365;51.598;7.668;2022-08-19T02:31:31;19.60;;;12.88;;
29382;SDS011;16365;51.598;7.668;2022-08-19T02:33:59;19.02;;;13.02;;
29382;SDS011;16365;51.598;7.668;2022-08-19T02:36:26;20.08;;;13.77;;
29382;SDS011;16365;51.598;7.668;2022-08-19T02:38:55;18.30;;;13.57;;
29382;SDS011;16365;51.598;7.668;2022-08-19T02:41:23;16.55;;;13.25;;
29382;SDS011;16365;51.598;7.668;2022-08-19T02:43:53;18.95;;;13.73;;
29382;SDS011;16365;51.598;7.668;2022-08-19T02:46:41;19.52;;;13.98;;
29382;SDS011;16365;51.598;7.668;2022-08-19T02:49:08;19.05;;;13.35;;
29382;SDS011;16365;51.598;7.668;2022-08-19T02:51:35;16.48;;;12.82;;
29382;SDS011;16365;51.598;7.668;2022-08-19T02:54:04;16.42;;;11.68;;
29382;SDS011;16365;51.598;7.668;2022-08-19T02:56:34;16.30;;;13.10;;
29382;SDS011;16365;51.598;7.668;2022-08-19T02:59:02;16.95;;;12.70;;
29382;SDS011;16365;51.598;7.668;2022-08-19T03:01:35;18.20;;;12.88;;
29382;SDS011;16365;51.598;7.668;2022-08-19T03:04:02;17.88;;;13.13;;
29382;SDS011;16365;51.598;7.668;2022-08-19T03:06:30;16.98;;;12.70;;
29382;SDS011;16365;51.598;7.668;2022-08-19T03:08:57;16.60;;;12.93;;
29382;SDS011;16365;51.598;7.668;2022-08-19T03:11:25;18.00;;;13.38;;
29382;SDS011;16365;51.598;7.668;2022-08-19T03:13:54;19.20;;;13.90;;
29382;SDS011;16365;51.598;7.668;2022-08-19T03:16:22;19.58;;;14.00;;
29382;SDS011;16365;51.598;7.668;2022-08-19T03:18:50;21.20;;;16.38;;
29382;SDS011;16365;51.598;7.668;2022-08-19T03:21:21;42.27;;;26.23;;
29382;SDS011;16365;51.598;7.668;2022-08-19T03:23:55;38.25;;;27.02;;
29382;SDS011;16365;51.598;7.668;2022-08-19T03:26:23;42.90;;;28.00;;
29382;SDS011;16365;51.598;7.668;2022-08-19T03:28:49;45.63;;;31.25;;
29382;SDS011;16365;51.598;7.668;2022-08-19T03:31:24;44.33;;;32.28;;
29382;SDS011;16365;51.598;7.668;2022-08-19T03:34:14;41.15;;;31.80;;
29382;SDS011;16365;51.598;7.668;2022-08-19T03:36:47;46.10;;;32.20;;
29382;SDS011;16365;51.598;7.668;2022-08-19T03:39:14;45.00;;;31.38;;
29382;SDS011;16365;51.598;7.668;2022-08-19T03:41:43;43.43;;;30.93;;
29382;SDS011;16365;51.598;7.668;2022-08-19T03:44:14;42.17;;;30.08;;
29382;SDS011;16365;51.598;7.668;2022-08-19T03:46:45;43.53;;;27.35;;
29382;SDS011;16365;51.598;7.668;2022-08-19T03:49:14;36.58;;;26.27;;
29382;SDS011;16365;51.598;7.668;2022-08-19T03:51:44;38.63;;;25.60;;
29382;SDS011;16365;51.598;7.668;2022-08-19T03:54:12;40.50;;;25.65;;
29382;SDS011;16365;51.598;7.668;2022-08-19T03:56:41;35.70;;;25.33;;
29382;SDS011;16365;51.598;7.668;2022-08-19T03:59:10;33.53;;;24.35;;
29382;SDS011;16365;51.598;7.668;2022-08-19T04:01:39;29.70;;;22.40;;
29382;SDS011;16365;51.598;7.668;2022-08-19T04:04:07;30.52;;;21.38;;
29382;SDS011;16365;51.598;7.668;2022-08-19T04:06:35;29.50;;;21.73;;
29382;SDS011;16365;51.598;7.668;2022-08-19T04:09:05;27.00;;;20.60;;
29382;SDS011;16365;51.598;7.668;2022-08-19T04:11:36;30.42;;;21.73;;
29382;SDS011;16365;51.598;7.668;2022-08-19T04:14:10;30.33;;;21.50;;
29382;SDS011;16365;51.598;7.668;2022-08-19T04:16:39;29.83;;;21.38;;
29382;SDS011;16365;51.598;7.668;2022-08-19T04:19:06;28.55;;;20.38;;
29382;SDS011;16365;51.598;7.668;2022-08-19T04:21:33;26.60;;;19.38;;
29382;SDS011;16365;51.598;7.668;2022-08-19T04:24:00;31.67;;;20.40;;
29382;SDS011;16365;51.598;7.668;2022-08-19T04:26:33;28.33;;;22.20;;
29382;SDS011;16365;51.598;7.668;2022-08-19T04:29:02;35.58;;;22.02;;
29382;SDS011;16365;51.598;7.668;2022-08-19T04:31:38;36.78;;;25.52;;
29382;SDS011;16365;51.598;7.668;2022-08-19T04:34:06;39.00;;;25.70;;
29382;SDS011;16365;51.598;7.668;2022-08-19T04:36:35;37.85;;;25.20;;
29382;SDS011;16365;51.598;7.668;2022-08-19T04:39:04;36.75;;;24.85;;
29382;SDS011;16365;51.598;7.668;2022-08-19T04:41:33;35.65;;;25.58;;
29382;SDS011;16365;51.598;7.668;2022-08-19T04:44:18;32.90;;;24.05;;
29382;SDS011;16365;51.598;7.668;2022-08-19T04:46:46;34.60;;;23.67;;
29382;SDS011;16365;51.598;7.668;2022-08-19T04:49:18;32.67;;;23.05;;
29382;SDS011;16365;51.598;7.668;2022-08-19T04:51:48;28.90;;;20.35;;
29382;SDS011;16365;51.598;7.668;2022-08-19T04:54:17;33.55;;;22.17;;
29382;SDS011;16365;51.598;7.668;2022-08-19T04:57:03;27.77;;;20.88;;
29382;SDS011;16365;51.598;7.668;2022-08-19T04:59:34;31.45;;;21.27;;
29382;SDS011;16365;51.598;7.668;2022-08-19T05:02:01;28.98;;;20.60;;
29382;SDS011;16365;51.598;7.668;2022-08-19T05:04:28;32.75;;;21.95;;
29382;SDS011;16365;51.598;7.668;2022-08-19T05:06:58;30.25;;;22.13;;
29382;SDS011;16365;51.598;7.668;2022-08-19T05:09:26;30.52;;;22.23;;
29382;SDS011;16365;51.598;7.668;2022-08-19T05:12:14;35.88;;;21.98;;
29382;SDS011;16365;51.598;7.668;2022-08-19T05:14:41;45.70;;;22.52;;
29382;SDS011;16365;51.598;7.668;2022-08-19T05:17:08;33.42;;;21.92;;
29382;SDS011;16365;51.598;7.668;2022-08-19T05:19:53;28.90;;;21.25;;
29382;SDS011;16365;51.598;7.668;2022-08-19T05:22:39;33.15;;;22.48;;
29382;SDS011;16365;51.598;7.668;2022-08-19T05:25:07;35.20;;;23.00;;
29382;SDS011;16365;51.598;7.668;2022-08-19T05:27:39;30.52;;;21.83;;
29382;SDS011;16365;51.598;7.668;2022-08-19T05:30:06;37.72;;;23.67;;
29382;SDS011;16365;51.598;7.668;2022-08-19T05:32:34;33.30;;;22.57;;
29382;SDS011;16365;51.598;7.668;2022-08-19T05:35:00;39.92;;;23.85;;
29382;SDS011;16365;51.598;7.668;2022-08-19T05:37:27;40.78;;;26.00;;
29382;SDS011;16365;51.598;7.668;2022-08-19T05:39:54;37.08;;;25.83;;
29382;SDS011;16365;51.598;7.668;2022-08-19T05:42:21;41.65;;;26.30;;
29382;SDS011;16365;51.598;7.668;2022-08-19T05:44:49;42.33;;;26.27;;
29382;SDS011;16365;51.598;7.668;2022-08-19T05:47:17;39.83;;;25.83;;
29382;SDS011;16365;51.598;7.668;2022-08-19T05:49:46;40.60;;;25.48;;
29382;SDS011;16365;51.598;7.668;2022-08-19T05:52:13;41.85;;;25.95;;
29382;SDS011;16365;51.598;7.668;2022-08-19T05:54:51;47.90;;;27.07;;
29382;SDS011;16365;51.598;7.668;2022-08-19T05:57:18;43.92;;;25.98;;
29382;SDS011;16365;51.598;7.668;2022-08-19T05:59:45;41.13;;;25.77;;
29382;SDS011;16365;51.598;7.668;2022-08-19T06:02:23;39.63;;;24.45;;
29382;SDS011;16365;51.598;7.668;2022-08-19T06:04:51;41.47;;;24.77;;
29382;SDS011;16365;51.598;7.668;2022-08-19T06:07:17;50.13;;;25.70;;
29382;SDS011;16365;51.598;7.668;2022-08-19T06:09:45;40.33;;;24.20;;
29382;SDS011;16365;51.598;7.668;2022-08-19T06:12:25;41.97;;;25.48;;
29382;SDS011;16365;51.598;7.668;2022-08-19T06:14:56;35.20;;;23.77;;
29382;SDS011;16365;51.598;7.668;2022-08-19T06:17:27;39.83;;;23.17;;
29382;SDS011;16365;51.598;7.668;2022-08-19T06:19:57;41.25;;;23.67;;
29382;SDS011;16365;51.598;7.668;2022-08-19T06:22:24;38.35;;;25.05;;
29382;SDS011;16365;51.598;7.668;2022-08-19T06:24:51;36.47;;;23.42;;
29382;SDS011;16365;51.598;7.668;2022-08-19T06:27:19;45.53;;;27.35;;
29382;SDS011;16365;51.598;7.668;2022-08-19T06:29:47;49.05;;;30.42;;
29382;SDS011;16365;51.598;7.668;2022-08-19T06:32:14;58.08;;;34.20;;
29382;SDS011;16365;51.598;7.668;2022-08-19T06:34:42;46.17;;;31.63;;
29382;SDS011;16365;51.598;7.668;2022-08-19T06:37:09;41.42;;;27.38;;
29382;SDS011;16365;51.598;7.668;2022-08-19T06:39:37;49.17;;;27.58;;
29382;SDS011;16365;51.598;7.668;2022-08-19T06:42:06;39.17;;;27.30;;
29382;SDS011;16365;51.598;7.668;2022-08-19T06:44:36;43.45;;;28.77;;
29382;SDS011;16365;51.598;7.668;2022-08-19T06:47:11;40.22;;;29.70;;
29382;SDS011;16365;51.598;7.668;2022-08-19T06:49:52;39.42;;;28.30;;
29382;SDS011;16365;51.598;7.668;2022-08-19T06:52:26;46.22;;;29.95;;
29382;SDS011;16365;51.598;7.668;2022-08-19T06:54:53;46.58;;;28.95;;
29382;SDS011;16365;51.598;7.668;2022-08-19T06:57:25;43.25;;;27.25;;
29382;SDS011;16365;51.598;7.668;2022-08-19T06:59:52;45.17;;;27.13;;
29382;SDS011;16365;51.598;7.668;2022-08-19T07:02:19;35.10;;;24.85;;
29382;SDS011;16365;51.598;7.668;2022-08-19T07:04:47;39.50;;;25.13;;
29382;SDS011;16365;51.598;7.668;2022-08-19T07:07:18;35.10;;;24.65;;
29382;SDS011;16365;51.598;7.668;2022-08-19T07:09:47;36.95;;;24.33;;
29382;SDS011;16365;51.598;7.668;2022-08-19T07:12:25;37.22;;;24.15;;
29382;SDS011;16365;51.598;7.668;2022-08-19T07:15:01;33.78;;;23.48;;
29382;SDS011;16365;51.598;7.668;2022-08-19T07:17:31;36.88;;;25.63;;
29382;SDS011;16365;51.598;7.668;2022-08-19T07:20:00;38.67;;;25.85;;
29382;SDS011;16365;51.598;7.668;2022-08-19T07:22:30;52.25;;;28.23;;
29382;SDS011;16365;51.598;7.668;2022-08-19T07:24:57;44.03;;;27.17;;
29382;SDS011;16365;51.598;7.668;2022-08-19T07:27:24;39.55;;;26.52;;
29382;SDS011;16365;51.598;7.668;2022-08-19T07:29:51;36.53;;;26.90;;
29382;SDS011;16365;51.598;7.668;2022-08-19T07:32:23;36.40;;;27.38;;
29382;SDS011;16365;51.598;7.668;2022-08-19T07:34:54;39.45;;;26.52;;
29382;SDS011;16365;51.598;7.668;2022-08-19T07:37:22;41.13;;;28.15;;
29382;SDS011;16365;51.598;7.668;2022-08-19T07:39:55;41.47;;;25.23;;
29382;SDS011;16365;51.598;7.668;2022-08-19T07:42:22;38.58;;;26.35;;
29382;SDS011;16365;51.598;7.668;2022-08-19T07:44:49;40.30;;;27.90;;
29382;SDS011;16365;51.598;7.668;2022-08-19T07:47:16;50.90;;;27.95;;
29382;SDS011;16365;51.598;7.668;2022-08-19T07:50:04;35.97;;;26.43;;
29382;SDS011;16365;51.598;7.668;2022-08-19T07:52:33;37.30;;;25.08;;
29382;SDS011;16365;51.598;7.668;2022-08-19T07:55:02;37.42;;;25.27;;
29382;SDS011;16365;51.598;7.668;2022-08-19T07:57:30;37.03;;;22.48;;
29382;SDS011;16365;51.598;7.668;2022-08-19T07:59:57;33.83;;;22.23;;
29382;SDS011;16365;51.598;7.668;2022-08-19T08:02:30;34.15;;;22.00;;
29382;SDS011;16365;51.598;7.668;2022-08-19T08:04:56;33.63;;;20.80;;
29382;SDS011;16365;51.598;7.668;2022-08-19T08:07:41;32.20;;;20.40;;
29382;SDS011;16365;51.598;7.668;2022-08-19T08:10:26;34.47;;;17.98;;
29382;SDS011;16365;51.598;7.668;2022-08-19T08:12:52;24.02;;;17.73;;
29382;SDS011;16365;51.598;7.668;2022-08-19T08:15:35;28.15;;;17.92;;
29382;SDS011;16365;51.598;7.668;2022-08-19T08:18:08;21.95;;;15.75;;
29382;SDS011;16365;51.598;7.668;2022-08-19T08:20:36;27.80;;;17.23;;
29382;SDS011;16365;51.598;7.668;2022-08-19T08:23:12;25.92;;;15.98;;
29382;SDS011;16365;51.598;7.668;2022-08-19T08:25:56;23.73;;;15.00;;
29382;SDS011;16365;51.598;7.668;2022-08-19T08:28:24;15.88;;;11.82;;
29382;SDS011;16365;51.598;7.668;2022-08-19T08:30:55;13.73;;;11.45;;
29382;SDS011;16365;51.598;7.668;2022-08-19T08:33:24;14.00;;;8.70;;
29382;SDS011;16365;51.598;7.668;2022-08-19T08:36:08;15.02;;;8.75;;
29382;SDS011;16365;51.598;7.668;2022-08-19T08:38:37;14.30;;;9.65;;
29382;SDS011;16365;51.598;7.668;2022-08-19T08:43:54;13.25;;;9.98;;
29382;SDS011;16365;51.598;7.668;2022-08-19T09:16:39;9.60;;;7.47;;
29382;SDS011;16365;51.598;7.668;2022-08-19T09:19:06;14.18;;;8.32;;
29382;SDS011;16365;51.598;7.668;2022-08-19T09:21:34;13.73;;;8.75;;
29382;SDS011;16365;51.598;7.668;2022-08-19T09:24:01;16.45;;;9.68;;
29382;SDS011;16365;51.598;7.668;2022-08-19T09:26:28;16.42;;;11.43;;
29382;SDS011;16365;51.598;7.668;2022-08-19T09:29:16;16.30;;;12.25;;
29382;SDS011;16365;51.598;7.668;2022-08-19T09:31:42;15.88;;;13.57;;
29382;SDS011;16365;51.598;7.668;2022-08-19T09:34:09;19.95;;;13.43;;
29382;SDS011;16365;51.598;7.668;2022-08-19T09:36:47;19.50;;;11.60;;
29382;SDS011;16365;51.598;7.668;2022-08-19T09:39:20;17.70;;;12.38;;
29382;SDS011;16365;51.598;7.668;2022-08-19T09:41:47;15.45;;;12.45;;
29382;SDS011;16365;51.598;7.668;2022-08-19T09:44:15;18.45;;;13.05;;
29382;SDS011;16365;51.598;7.668;2022-08-19T09:46:44;16.63;;;10.88;;
29382;SDS011;16365;51.598;7.668;2022-08-19T09:49:13;12.73;;;10.15;;
29382;SDS011;16365;51.598;7.668;2022-08-19T09:51:39;10.73;;;8.55;;
29382;SDS011;16365;51.598;7.668;2022-08-19T09:54:06;9.38;;;7.88;;
29382;SDS011;16365;51.598;7.668;2022-08-19T09:56:36;13.35;;;7.75;;
29382;SDS011;16365;51.598;7.668;2022-08-19T09:59:03;10.45;;;7.18;;
29382;SDS011;16365;51.598;7.668;2022-08-19T10:01:30;12.82;;;8.63;;
29382;SDS011;16365;51.598;7.668;2022-08-19T10:03:59;16.67;;;11.77;;
29382;SDS011;16365;51.598;7.668;2022-08-19T10:06:34;10.63;;;8.43;;
29382;SDS011;16365;51.598;7.668;2022-08-19T10:09:11;17.23;;;9.98;;
29382;SDS011;16365;51.598;7.668;2022-08-19T10:11:42;12.57;;;8.63;;
29382;SDS011;16365;51.598;7.668;2022-08-19T10:14:20;13.77;;;8.57;;
29382;SDS011;16365;51.598;7.668;2022-08-19T10:16:49;11.20;;;7.13;;
29382;SDS011;16365;51.598;7.668;2022-08-19T10:19:16;12.77;;;8.48;;
29382;SDS011;16365;51.598;7.668;2022-08-19T10:21:51;15.30;;;9.45;;
29382;SDS011;16365;51.598;7.668;2022-08-19T10:24:18;14.68;;;8.55;;
29382;SDS011;16365;51.598;7.668;2022-08-19T10:29:24;12.43;;;7.25;;
29382;SDS011;16365;51.598;7.668;2022-08-19T10:32:01;11.02;;;5.93;;
29382;SDS011;16365;51.598;7.668;2022-08-19T10:34:35;8.85;;;7.95;;
29382;SDS011;16365;51.598;7.668;2022-08-19T10:37:13;11.55;;;8.23;;
29382;SDS011;16365;51.598;7.668;2022-08-19T10:39:45;11.88;;;7.35;;
29382;SDS011;16365;51.598;7.668;2022-08-19T10:42:14;12.45;;;8.63;;
29382;SDS011;16365;51.598;7.668;2022-08-19T10:44:42;9.63;;;7.68;;
29382;SDS011;16365;51.598;7.668;2022-08-19T10:47:08;10.65;;;6.95;;
29382;SDS011;16365;51.598;7.668;2022-08-19T10:49:49;13.73;;;7.55;;
29382;SDS011;16365;51.598;7.668;2022-08-19T10:52:37;11.55;;;7.88;;
29382;SDS011;16365;51.598;7.668;2022-08-19T10:55:15;11.85;;;6.88;;
29382;SDS011;16365;51.598;7.668;2022-08-19T10:58:02;8.60;;;6.85;;
29382;SDS011;16365;51.598;7.668;2022-08-19T11:00:29;7.35;;;5.85;;
29382;SDS011;16365;51.598;7.668;2022-08-19T11:02:57;9.73;;;7.07;;
29382;SDS011;16365;51.598;7.668;2022-08-19T11:05:24;8.98;;;5.57;;
29382;SDS011;16365;51.598;7.668;2022-08-19T11:07:50;8.93;;;6.80;;
29382;SDS011;16365;51.598;7.668;2022-08-19T11:10:18;10.15;;;7.07;;
29382;SDS011;16365;51.598;7.668;2022-08-19T11:12:47;11.60;;;6.90;;
29382;SDS011;16365;51.598;7.668;2022-08-19T11:15:14;10.48;;;7.20;;
29382;SDS011;16365;51.598;7.668;2022-08-19T11:17:41;11.30;;;5.93;;
29382;SDS011;16365;51.598;7.668;2022-08-19T11:20:13;7.43;;;5.75;;
29382;SDS011;16365;51.598;7.668;2022-08-19T11:22:41;4.93;;;4.53;;
29382;SDS011;16365;51.598;7.668;2022-08-19T11:25:09;7.88;;;6.53;;
29382;SDS011;16365;51.598;7.668;2022-08-19T11:27:38;7.22;;;6.05;;
29382;SDS011;16365;51.598;7.668;2022-08-19T11:30:10;6.55;;;5.90;;
29382;SDS011;16365;51.598;7.668;2022-08-19T11:32:39;11.00;;;7.20;;
29382;SDS011;16365;51.598;7.668;2022-08-19T11:35:13;6.72;;;6.13;;
29382;SDS011;16365;51.598;7.668;2022-08-19T11:37:46;6.97;;;5.35;;
29382;SDS011;16365;51.598;7.668;2022-08-19T11:40:12;7.22;;;5.57;;
29382;SDS011;16365;51.598;7.668;2022-08-19T11:42:39;8.68;;;5.15;;
29382;SDS011;16365;51.598;7.668;2022-08-19T11:45:34;9.65;;;8.45;;
29382;SDS011;16365;51.598;7.668;2022-08-19T11:48:02;12.07;;;9.52;;
29382;SDS011;16365;51.598;7.668;2022-08-19T11:50:29;15.95;;;10.55;;
29382;SDS011;16365;51.598;7.668;2022-08-19T11:52:56;10.70;;;8.20;;
29382;SDS011;16365;51.598;7.668;2022-08-19T11:55:23;8.95;;;8.05;;
29382;SDS011;16365;51.598;7.668;2022-08-19T11:57:49;13.52;;;7.38;;
29382;SDS011;16365;51.598;7.668;2022-08-19T12:00:16;12.20;;;9.18;;
29382;SDS011;16365;51.598;7.668;2022-08-19T12:02:42;13.13;;;8.10;;
29382;SDS011;16365;51.598;7.668;2022-08-19T12:05:09;9.07;;;7.80;;
29382;SDS011;16365;51.598;7.668;2022-08-19T12:07:38;10.45;;;7.00;;
29382;SDS011;16365;51.598;7.668;2022-08-19T12:10:06;9.85;;;6.80;;
29382;SDS011;16365;51.598;7.668;2022-08-19T12:12:34;8.45;;;7.13;;
29382;SDS011;16365;51.598;7.668;2022-08-19T12:15:01;10.63;;;8.57;;
29382;SDS011;16365;51.598;7.668;2022-08-19T12:17:28;11.10;;;7.40;;
29382;SDS011;16365;51.598;7.668;2022-08-19T12:19:56;10.82;;;7.88;;
29382;SDS011;16365;51.598;7.668;2022-08-19T12:22:23;9.30;;;6.55;;
29382;SDS011;16365;51.598;7.668;2022-08-19T12:24:49;10.20;;;6.55;;
29382;SDS011;16365;51.598;7.668;2022-08-19T12:27:18;9.15;;;6.93;;
29382;SDS011;16365;51.598;7.668;2022-08-19T12:30:05;12.18;;;7.30;;
29382;SDS011;16365;51.598;7.668;2022-08-19T12:32:34;7.53;;;5.88;;
29382;SDS011;16365;51.598;7.668;2022-08-19T12:35:00;12.90;;;6.57;;
29382;SDS011;16365;51.598;7.668;2022-08-19T12:37:27;11.18;;;6.70;;
29382;SDS011;16365;51.598;7.668;2022-08-19T12:39:54;9.23;;;6.22;;
29382;SDS011;16365;51.598;7.668;2022-08-19T12:42:20;7.68;;;6.05;;
29382;SDS011;16365;51.598;7.668;2022-08-19T12:44:48;8.38;;;6.00;;
29382;SDS011;16365;51.598;7.668;2022-08-19T12:47:14;6.20;;;5.50;;
29382;SDS011;16365;51.598;7.668;2022-08-19T12:49:41;9.40;;;6.97;;
29382;SDS011;16365;51.598;7.668;2022-08-19T12:52:21;9.43;;;6.43;;
29382;SDS011;16365;51.598;7.668;2022-08-19T12:54:50;12.57;;;7.68;;
29382;SDS011;16365;51.598;7.668;2022-08-19T12:57:20;11.65;;;6.50;;
29382;SDS011;16365;51.598;7.668;2022-08-19T13:00:12;13.40;;;7.63;;
29382;SDS011;16365;51.598;7.668;2022-08-19T13:02:42;9.65;;;7.07;;
29382;SDS011;16365;51.598;7.668;2022-08-19T13:05:11;8.10;;;6.78;;
29382;SDS011;16365;51.598;7.668;2022-08-19T13:07:43;14.88;;;8.38;;
29382;SDS011;16365;51.598;7.668;2022-08-19T13:10:10;13.77;;;7.70;;
29382;SDS011;16365;51.598;7.668;2022-08-19T13:12:39;9.38;;;6.60;;
29382;SDS011;16365;51.598;7.668;2022-08-19T13:15:07;8.88;;;6.55;;
29382;SDS011;16365;51.598;7.668;2022-08-19T13:17:36;14.18;;;6.43;;
29382;SDS011;16365;51.598;7.668;2022-08-19T13:20:04;14.55;;;6.20;;
29382;SDS011;16365;51.598;7.668;2022-08-19T13:22:33;12.13;;;7.45;;
29382;SDS011;16365;51.598;7.668;2022-08-19T13:25:02;9.07;;;6.65;;
29382;SDS011;16365;51.598;7.668;2022-08-19T13:27:31;16.35;;;8.68;;
29382;SDS011;16365;51.598;7.668;2022-08-19T13:29:58;13.85;;;8.25;;
29382;SDS011;16365;51.598;7.668;2022-08-19T13:32:44;11.85;;;9.13;;
29382;SDS011;16365;51.598;7.668;2022-08-19T13:35:29;10.82;;;8.40;;
29382;SDS011;16365;51.598;7.668;2022-08-19T13:37:55;12.90;;;8.23;;
29382;SDS011;16365;51.598;7.668;2022-08-19T13:40:22;12.00;;;8.65;;
29382;SDS011;16365;51.598;7.668;2022-08-19T13:42:53;10.75;;;8.05;;
29382;SDS011;16365;51.598;7.668;2022-08-19T13:45:22;10.70;;;9.35;;
29382;SDS011;16365;51.598;7.668;2022-08-19T13:47:51;13.60;;;9.57;;
29382;SDS011;16365;51.598;7.668;2022-08-19T13:50:26;8.98;;;8.02;;
29382;SDS011;16365;51.598;7.668;2022-08-19T13:52:55;11.90;;;8.23;;
29382;SDS011;16365;51.598;7.668;2022-08-19T13:55:22;20.05;;;7.90;;
29382;SDS011;16365;51.598;7.668;2022-08-19T13:57:53;10.80;;;7.68;;
29382;SDS011;16365;51.598;7.668;2022-08-19T14:00:23;10.38;;;8.18;;
29382;SDS011;16365;51.598;7.668;2022-08-19T14:02:53;10.30;;;6.90;;
29382;SDS011;16365;51.598;7.668;2022-08-19T14:05:22;11.15;;;6.75;;
29382;SDS011;16365;51.598;7.668;2022-08-19T14:07:50;7.80;;;6.82;;
29382;SDS011;16365;51.598;7.668;2022-08-19T14:10:17;15.20;;;7.80;;
29382;SDS011;16365;51.598;7.668;2022-08-19T14:15:12;11.90;;;7.63;;
29382;SDS011;16365;51.598;7.668;2022-08-19T14:17:40;16.80;;;7.17;;
29382;SDS011;16365;51.598;7.668;2022-08-19T14:20:09;10.93;;;7.38;;
29382;SDS011;16365;51.598;7.668;2022-08-19T14:22:44;9.57;;;7.47;;
29382;SDS011;16365;51.598;7.668;2022-08-19T14:25:13;9.13;;;7.07;;
29382;SDS011;16365;51.598;7.668;2022-08-19T14:27:44;14.63;;;7.68;;
29382;SDS011;16365;51.598;7.668;2022-08-19T14:30:11;7.82;;;6.75;;
29382;SDS011;16365;51.598;7.668;2022-08-19T14:32:40;10.90;;;7.15;;
29382;SDS011;16365;51.598;7.668;2022-08-19T14:35:09;12.40;;;6.50;;
29382;SDS011;16365;51.598;7.668;2022-08-19T14:37:38;8.05;;;7.20;;
29382;SDS011;16365;51.598;7.668;2022-08-19T14:40:11;10.45;;;8.55;;
29382;SDS011;16365;51.598;7.668;2022-08-19T14:42:41;8.88;;;7.22;;
29382;SDS011;16365;51.598;7.668;2022-08-19T14:45:09;10.18;;;7.22;;
29382;SDS011;16365;51.598;7.668;2022-08-19T14:47:37;7.75;;;6.90;;
29382;SDS011;16365;51.598;7.668;2022-08-19T14:50:07;12.45;;;7.93;;
29382;SDS011;16365;51.598;7.668;2022-08-19T14:52:35;11.57;;;7.63;;
29382;SDS011;16365;51.598;7.668;2022-08-19T14:55:02;15.45;;;7.60;;
29382;SDS011;16365;51.598;7.668;2022-08-19T14:57:32;9.57;;;6.57;;
29382;SDS011;16365;51.598;7.668;2022-08-19T14:59:59;10.05;;;8.05;;
29382;SDS011;16365;51.598;7.668;2022-08-19T15:02:26;11.05;;;7.63;;
29382;SDS011;16365;51.598;7.668;2022-08-19T15:05:00;8.43;;;6.60;;
29382;SDS011;16365;51.598;7.668;2022-08-19T15:07:28;8.35;;;7.40;;
29382;SDS011;16365;51.598;7.668;2022-08-19T15:09:55;7.07;;;6.37;;
29382;SDS011;16365;51.598;7.668;2022-08-19T15:12:23;7.65;;;6.85;;
29382;SDS011;16365;51.598;7.668;2022-08-19T15:14:50;9.17;;;7.00;;
29382;SDS011;16365;51.598;7.668;2022-08-19T15:17:21;10.30;;;7.35;;
29382;SDS011;16365;51.598;7.668;2022-08-19T15:20:08;9.75;;;7.22;;
29382;SDS011;16365;51.598;7.668;2022-08-19T15:22:36;7.85;;;6.82;;
29382;SDS011;16365;51.598;7.668;2022-08-19T15:25:03;8.82;;;6.45;;
29382;SDS011;16365;51.598;7.668;2022-08-19T15:27:31;10.95;;;7.07;;
29382;SDS011;16365;51.598;7.668;2022-08-19T15:29:58;8.75;;;6.57;;
29382;SDS011;16365;51.598;7.668;2022-08-19T15:32:26;8.45;;;6.22;;